Time;durP1;ratioP1;P1;durP2;ratioP2;P2;SDS_P1;SDS_P2;PMS_P1;PMS_P2;Temp;Humidity;BMP_temperature;BMP_pressure;BME280_temperature;BME280_humidity;BME280_pressure;Samples;Min_cycle;Max_cycle;Signal;HPM_P1;HPM_P2
2022/05/21 00:01:24;;;;;;;15.48;6.88;;;11.00;99.90;;;;;;5093414;28;20079;-66
2022/05/21 00:03:50;;;;;;;12.57;5.97;;;10.20;99.90;;;;;;5093432;28;20036;-65
2022/05/21 00:06:16;;;;;;;11.70;6.68;;;10.10;99.90;;;;;;5092563;28;20052;-64
2022/05/21 00:08:41;;;;;;;16.52;7.32;;;10.00;99.90;;;;;;5093580;28;20135;-64
2022/05/21 00:11:07;;;;;;;12.40;6.53;;;10.00;99.90;;;;;;5093595;28;20048;-65
2022/05/21 00:13:33;;;;;;;17.67;8.30;;;11.20;99.90;;;;;;5093350;28;20097;-65
2022/05/21 00:15:59;;;;;;;17.65;6.88;;;9.80;99.90;;;;;;5093235;28;20048;-66
2022/05/21 00:18:24;;;;;;;15.88;7.13;;;10.10;99.90;;;;;;5093024;28;20056;-66
2022/05/21 00:20:50;;;;;;;13.27;7.80;;;10.40;99.90;;;;;;5093422;28;20047;-65
2022/05/21 00:23:24;;;;;;;19.40;8.18;;;10.40;99.90;;;;;;5091982;28;20525;-64
2022/05/21 00:25:55;;;;;;;17.95;8.55;;;10.20;99.90;;;;;;5093333;28;20598;-66
2022/05/21 00:28:21;;;;;;;22.08;8.75;;;10.20;99.90;;;;;;5093313;28;20052;-65
2022/05/21 00:30:46;;;;;;;28.17;10.40;;;10.20;99.90;;;;;;5093018;28;20433;-65
2022/05/21 00:33:13;;;;;;;19.33;10.00;;;10.10;99.90;;;;;;5092718;28;20059;-65
2022/05/21 00:35:39;;;;;;;25.33;9.93;;;10.40;99.90;;;;;;5092867;28;20479;-65
2022/05/21 00:38:04;;;;;;;21.95;10.85;;;10.30;99.90;;;;;;5091956;28;20048;-68
2022/05/21 00:40:31;;;;;;;18.45;10.70;;;10.50;99.90;;;;;;5092847;28;20105;-65
2022/05/21 00:42:56;;;;;;;;;;;10.90;99.90;;;;;;5093314;28;20047;-65
2022/05/21 00:45:24;;;;;;;20.65;10.55;;;10.30;99.90;;;;;;5092839;28;19920;-65
2022/05/21 00:47:50;;;;;;;22.08;12.15;;;10.80;99.90;;;;;;5092690;28;20048;-67
2022/05/21 00:50:20;;;;;;;29.75;13.02;;;10.70;99.90;;;;;;5092917;28;20404;-65
2022/05/21 00:52:47;;;;;;;32.50;14.15;;;10.90;99.90;;;;;;5092624;28;20131;-67
2022/05/21 00:55:18;;;;;;;31.55;13.48;;;10.50;99.90;;;;;;5092604;28;20510;-66
2022/05/21 00:59:47;;;;;;;36.97;15.73;;;10.70;99.90;;;;;;5092610;28;20050;-65
2022/05/21 01:00:41;;;;;;;36.78;15.77;;;10.80;99.90;;;;;;5092715;28;20086;-65
2022/05/21 01:03:08;;;;;;;37.97;17.23;;;10.70;99.90;;;;;;5092586;28;20548;-66
2022/05/21 01:05:37;;;;;;;37.53;16.50;;;11.30;99.90;;;;;;5092612;28;20103;-65
2022/05/21 01:08:03;;;;;;;39.33;18.63;;;10.80;99.90;;;;;;5092597;28;20119;-65
2022/05/21 01:10:33;;;;;;;43.97;19.73;;;11.00;99.90;;;;;;5092243;28;20097;-64
2022/05/21 01:13:01;;;;;;;41.38;20.10;;;10.70;99.90;;;;;;5092559;28;20075;-65
2022/05/21 01:15:36;;;;;;;38.88;21.65;;;12.20;99.90;;;;;;5092630;28;20055;-65
2022/05/21 01:18:05;;;;;;;49.33;22.73;;;11.10;99.90;;;;;;5092544;28;20093;-65
2022/05/21 01:20:36;;;;;;;51.90;24.23;;;11.30;99.90;;;;;;5091184;28;20514;-68
2022/05/21 01:23:02;;;;;;;45.22;24.63;;;11.00;99.90;;;;;;5092275;28;20101;-65
2022/05/21 01:25:29;;;;;;;52.65;25.55;;;11.20;99.90;;;;;;5092562;28;20043;-65
2022/05/21 01:27:55;;;;;;;59.40;27.02;;;11.20;99.90;;;;;;5092315;28;20048;-68
2022/05/21 01:30:32;;;;;;;51.97;28.42;;;11.40;99.90;;;;;;5096130;28;20051;-65
2022/05/21 01:33:01;;;;;;;56.25;28.65;;;11.30;99.90;;;;;;5096422;28;20156;-65
2022/05/21 01:35:27;;;;;;;65.90;28.92;;;12.40;99.90;;;;;;5096340;28;20048;-65
2022/05/21 01:37:53;;;;;;;52.30;28.63;;;11.70;99.90;;;;;;5096348;28;20044;-64
2022/05/21 01:40:19;;;;;;;55.50;28.25;;;11.90;99.90;;;;;;5096406;28;20085;-64
2022/05/21 01:44:37;;;;;;;57.17;29.92;;;12.20;99.90;;;;;;5096419;28;20094;-64
2022/05/21 01:45:31;;;;;;;66.68;29.73;;;11.80;99.90;;;;;;5096176;28;20051;-64
2022/05/21 01:47:57;;;;;;;58.40;29.80;;;12.50;99.90;;;;;;5094891;28;20472;-63
2022/05/21 01:50:22;;;;;;;67.75;31.35;;;12.70;99.90;;;;;;5096044;28;20048;-63
2022/05/21 01:52:48;;;;;;;59.78;31.60;;;12.90;99.90;;;;;;5096079;28;20051;-63
2022/05/21 01:55:13;;;;;;;67.03;30.38;;;12.30;99.90;;;;;;5096215;28;20048;-64
2022/05/21 01:57:39;;;;;;;54.72;29.25;;;12.30;99.90;;;;;;5096091;28;20082;-63
2022/05/21 02:00:06;;;;;;;44.83;29.08;;;12.40;99.90;;;;;;5096099;28;20483;-63
2022/05/21 02:02:33;;;;;;;65.25;30.95;;;12.10;99.90;;;;;;5096067;28;20052;-63
2022/05/21 02:04:59;;;;;;;60.55;31.00;;;12.10;99.90;;;;;;5095792;28;20576;-64
2022/05/21 02:07:24;;;;;;;51.33;29.20;;;12.30;99.90;;;;;;5095767;28;20130;-63
2022/05/21 02:09:50;;;;;;;67.25;29.92;;;12.40;99.90;;;;;;5095904;28;20052;-64
2022/05/21 02:12:16;;;;;;;56.97;30.15;;;12.40;99.90;;;;;;5095852;28;20101;-64
2022/05/21 02:14:43;;;;;;;54.95;28.95;;;12.30;99.90;;;;;;5095534;28;20502;-65
2022/05/21 02:17:09;;;;;;;60.70;29.30;;;12.30;99.90;;;;;;5095561;28;20514;-66
2022/05/21 02:19:35;;;;;;;52.40;27.88;;;13.40;99.90;;;;;;5095493;28;20044;-62
2022/05/21 02:22:00;;;;;;;46.20;24.20;;;12.50;99.90;;;;;;5095776;28;20484;-65
2022/05/21 02:24:26;;;;;;;52.83;26.10;;;12.60;99.90;;;;;;5095483;28;20126;-64
2022/05/21 02:26:52;;;;;;;54.05;25.95;;;12.30;99.90;;;;;;5095529;28;20054;-64
2022/05/21 02:29:18;;;;;;;50.45;23.98;;;12.40;99.90;;;;;;5095466;28;20047;-64
2022/05/21 02:31:44;;;;;;;52.97;24.55;;;12.70;99.90;;;;;;5095380;28;20048;-63
2022/05/21 02:34:10;;;;;;;44.13;21.67;;;12.40;99.90;;;;;;5093954;28;20121;-62
2022/05/21 02:39:28;;;;;;;43.70;18.85;;;12.50;99.90;;;;;;5095249;28;20051;-64
2022/05/21 02:41:56;;;;;;;39.40;18.70;;;13.90;99.90;;;;;;5095194;28;20044;-64
2022/05/21 02:44:21;;;;;;;40.15;17.55;;;12.60;99.90;;;;;;5095068;28;20040;-63
2022/05/21 02:46:47;;;;;;;48.13;17.55;;;12.60;99.90;;;;;;5095050;28;20047;-64
2022/05/21 02:49:13;;;;;;;46.50;16.70;;;12.60;99.90;;;;;;5095192;28;20548;-64
2022/05/21 02:51:39;;;;;;;40.80;15.95;;;12.80;99.90;;;;;;5095125;28;20192;-63
2022/05/21 02:54:06;;;;;;;40.42;16.42;;;12.40;99.90;;;;;;5094981;28;20081;-63
2022/05/21 02:56:35;;;;;;;48.50;14.07;;;12.70;99.90;;;;;;5094971;28;20062;-63
2022/05/21 02:59:01;;;;;;;37.17;12.20;;;12.70;99.90;;;;;;5094703;28;20054;-63
2022/05/21 03:01:26;;;;;;;32.67;8.48;;;13.80;99.90;;;;;;5095026;28;20051;-65
2022/05/21 03:03:52;;;;;;;30.90;9.20;;;12.80;99.90;;;;;;5094681;28;20376;-65
2022/05/21 03:06:17;;;;;;;36.15;7.88;;;12.80;99.90;;;;;;5077011;28;20098;-64
2022/05/21 03:11:27;;;;;;;27.38;6.47;;;12.80;99.90;;;;;;5094506;28;20059;-63
2022/05/21 03:13:53;;;;;;;28.80;7.13;;;12.80;99.90;;;;;;5094737;28;20039;-64
2022/05/21 03:16:18;;;;;;;23.83;6.57;;;12.60;99.90;;;;;;5094539;28;20048;-64
2022/05/21 03:18:45;;;;;;;27.20;7.40;;;13.00;99.90;;;;;;5094621;28;20044;-65
2022/05/21 03:21:13;;;;;;;27.00;6.32;;;12.70;99.90;;;;;;5094331;28;20056;-65
2022/05/21 03:23:39;;;;;;;28.73;6.00;;;12.90;99.90;;;;;;5094305;28;20036;-65
2022/05/21 03:26:05;;;;;;;31.38;6.82;;;13.10;99.90;;;;;;5093087;28;20046;-65
2022/05/21 03:28:32;;;;;;;29.83;7.35;;;13.70;99.90;;;;;;5094437;28;20457;-66
2022/05/21 03:30:57;;;;;;;27.83;6.30;;;13.00;99.90;;;;;;5094433;28;20044;-65
2022/05/21 03:33:23;;;;;;;24.90;6.38;;;13.00;99.90;;;;;;5094121;28;20052;-64
2022/05/21 03:35:49;;;;;;;22.73;5.70;;;13.60;99.90;;;;;;5094222;28;20055;-64
2022/05/21 03:38:15;;;;;;;26.70;6.43;;;13.10;99.90;;;;;;5094086;28;20098;-65
2022/05/21 03:40:41;;;;;;;29.10;6.68;;;13.00;99.90;;;;;;5093952;28;20393;-64
2022/05/21 03:43:09;;;;;;;32.75;6.78;;;12.90;99.90;;;;;;5093781;28;20048;-68
2022/05/21 03:45:35;;;;;;;27.83;6.75;;;12.80;99.90;;;;;;5094063;28;20044;-63
2022/05/21 03:48:00;;;;;;;29.52;6.22;;;12.90;99.90;;;;;;5094068;28;20074;-63
2022/05/21 03:50:27;;;;;;;27.75;6.32;;;13.00;99.90;;;;;;5093888;28;20054;-66
2022/05/21 03:52:53;;;;;;;20.42;5.55;;;12.80;99.90;;;;;;5093131;28;20506;-65
2022/05/21 03:55:19;;;;;;;28.98;6.30;;;13.50;99.90;;;;;;5093577;28;20044;-65
2022/05/21 03:57:45;;;;;;;28.67;5.97;;;13.20;99.90;;;;;;5093960;28;20123;-66
2022/05/21 04:00:15;;;;;;;17.00;5.05;;;12.70;99.90;;;;;;5093706;28;20135;-65
2022/05/21 04:02:41;;;;;;;23.13;4.80;;;12.90;99.90;;;;;;5093689;28;20135;-65
2022/05/21 04:05:07;;;;;;;15.38;3.78;;;12.90;99.90;;;;;;5092411;28;20139;-65
2022/05/21 04:07:34;;;;;;;16.15;4.20;;;13.00;99.90;;;;;;5093539;28;20105;-65
2022/05/21 04:10:00;;;;;;;24.73;5.53;;;12.80;99.90;;;;;;5093447;28;20044;-65
2022/05/21 04:12:25;;;;;;;18.88;4.00;;;13.10;99.90;;;;;;5093545;28;20047;-65
2022/05/21 04:14:51;;;;;;;19.55;3.70;;;12.80;99.90;;;;;;5093602;28;20410;-65
2022/05/21 04:17:17;;;;;;;16.83;3.40;;;13.40;99.90;;;;;;5093412;28;20048;-65
2022/05/21 04:19:42;;;;;;;15.90;3.10;;;13.30;99.90;;;;;;5093439;28;20043;-66
2022/05/21 04:22:09;;;;;;;15.05;3.45;;;12.90;99.90;;;;;;5093201;28;20083;-65
2022/05/21 04:24:35;;;;;;;14.23;3.47;;;13.00;99.90;;;;;;5093097;28;20505;-65
2022/05/21 04:27:01;;;;;;;13.98;3.40;;;13.10;99.90;;;;;;5093430;28;20052;-65
2022/05/21 04:29:26;;;;;;;17.48;3.47;;;13.00;99.90;;;;;;5091881;28;20399;-65
2022/05/21 04:31:52;;;;;;;14.13;4.10;;;12.80;99.90;;;;;;5092029;28;20048;-65
2022/05/21 04:34:18;;;;;;;18.48;4.32;;;12.90;99.90;;;;;;5092738;28;20056;-66
2022/05/21 04:36:44;;;;;;;14.50;4.25;;;13.10;99.90;;;;;;5093036;28;20055;-65
2022/05/21 04:39:10;;;;;;;16.67;4.35;;;13.20;99.90;;;;;;5092773;28;20100;-65
2022/05/21 04:41:36;;;;;;;;;;;13.00;99.90;;;;;;5093580;28;20040;-66
2022/05/21 04:44:02;;;;;;;17.90;4.00;;;12.90;99.90;;;;;;5092801;28;20328;-66
2022/05/21 04:46:28;;;;;;;;;;;12.90;99.90;;;;;;5093333;28;20087;-63
2022/05/21 04:48:53;;;;;;;21.75;4.43;;;12.90;99.90;;;;;;5091638;28;19963;-64
2022/05/21 04:51:19;;;;;;;18.30;4.60;;;12.80;99.90;;;;;;5092816;28;20044;-66
2022/05/21 04:53:45;;;;;;;17.80;3.83;;;13.10;99.90;;;;;;5092598;28;20044;-65
2022/05/21 04:56:11;;;;;;;17.50;4.05;;;12.90;99.90;;;;;;5092722;28;20048;-66
2022/05/21 04:58:37;;;;;;;17.58;3.10;;;13.10;99.90;;;;;;5093037;28;20046;-66
2022/05/21 05:01:06;;;;;;;18.40;4.90;;;13.00;99.90;;;;;;5091632;28;20127;-66
2022/05/21 05:03:32;;;;;;;12.82;3.70;;;13.00;99.90;;;;;;5091645;28;20093;-65
2022/05/21 05:05:58;;;;;;;14.52;3.70;;;13.10;99.90;;;;;;5092645;28;20121;-66
2022/05/21 05:08:24;;;;;;;16.92;3.72;;;13.30;99.90;;;;;;5092332;28;20039;-64
2022/05/21 05:10:50;;;;;;;;;;;13.40;99.90;;;;;;5092929;28;20487;-65
2022/05/21 05:13:16;;;;;;;17.90;3.80;;;13.30;99.90;;;;;;5092247;28;19924;-66
2022/05/21 05:15:46;;;;;;;16.13;4.47;;;13.00;99.90;;;;;;5091319;28;20090;-64
2022/05/21 05:18:23;;;;;;;13.77;3.60;;;13.10;99.90;;;;;;5092395;28;20048;-66
2022/05/21 05:20:49;;;;;;;19.92;4.90;;;13.00;99.90;;;;;;5091642;28;20122;-69
2022/05/21 05:23:16;;;;;;;21.40;3.90;;;12.90;99.90;;;;;;5083710;28;20052;-65
2022/05/21 05:25:41;;;;;;;;;;;13.10;99.90;;;;;;5091348;28;20044;-65
2022/05/21 05:28:23;;;;;;;17.00;4.65;;;13.10;99.90;;;;;;5092474;28;19920;-66
2022/05/21 05:30:49;;;;;;;17.63;4.30;;;13.10;99.90;;;;;;5092449;28;20051;-64
2022/05/21 05:33:16;;;;;;;18.27;3.60;;;13.30;99.90;;;;;;5092134;28;20048;-62
2022/05/21 05:35:42;;;;;;;14.07;3.30;;;13.10;99.90;;;;;;5092241;28;20051;-65
2022/05/21 05:38:09;;;;;;;;;;;13.50;99.90;;;;;;5092863;28;20043;-67
2022/05/21 05:40:36;;;;;;;16.05;3.80;;;13.20;99.90;;;;;;5091376;28;20019;-66
2022/05/21 05:43:02;;;;;;;22.77;4.63;;;13.30;99.90;;;;;;5092303;28;20043;-66
2022/05/21 05:45:29;;;;;;;18.35;3.97;;;13.50;99.90;;;;;;5092281;28;20108;-68
2022/05/21 05:47:54;;;;;;;;;;;14.60;99.90;;;;;;5092609;28;20040;-66
2022/05/21 05:50:20;;;;;;;20.10;4.30;;;13.40;99.90;;;;;;5092425;28;19973;-65
2022/05/21 05:52:46;;;;;;;21.33;4.40;;;13.20;99.90;;;;;;5092109;28;20062;-65
2022/05/21 05:55:12;;;;;;;20.17;4.22;;;13.00;99.90;;;;;;5092536;28;20040;-66
2022/05/21 05:57:38;;;;;;;;;;;13.60;99.90;;;;;;5092569;28;20066;-65
2022/05/21 06:00:06;;;;;;;20.75;4.30;;;14.30;99.90;;;;;;5092023;28;19920;-66
2022/05/21 06:05:22;;;;;;;22.42;4.97;;;14.20;99.90;;;;;;5092094;28;20050;-66
2022/05/21 06:07:53;;;;;;;18.45;3.97;;;13.40;99.90;;;;;;5092272;28;20114;-64
2022/05/21 06:10:22;;;;;;;21.02;4.28;;;13.10;99.90;;;;;;5091965;28;20048;-66
2022/05/21 06:12:48;;;;;;;27.05;4.45;;;13.40;99.90;;;;;;5091862;28;20068;-65
2022/05/21 06:15:15;;;;;;;20.25;4.30;;;13.60;99.90;;;;;;5093511;28;20052;-67
2022/05/21 06:17:41;;;;;;;18.92;4.95;;;13.10;99.90;;;;;;5095478;28;20515;-66
2022/05/21 06:20:08;;;;;;;;;;;13.60;99.90;;;;;;5096221;28;20046;-64
2022/05/21 06:22:35;;;;;;;19.90;3.95;;;13.60;99.90;;;;;;5082147;28;20353;-66
2022/05/21 06:25:00;;;;;;;19.65;4.43;;;13.30;99.90;;;;;;5075214;28;20040;-65
2022/05/21 06:27:27;;;;;;;22.17;3.67;;;13.50;99.90;;;;;;5075089;28;20068;-66
2022/05/21 06:29:52;;;;;;;21.10;3.88;;;13.80;99.90;;;;;;5075591;28;20533;-66
2022/05/21 06:32:18;;;;;;;13.55;3.72;;;13.80;99.90;;;;;;5074984;28;20113;-66
2022/05/21 06:34:44;;;;;;;16.15;4.13;;;14.20;99.90;;;;;;5074790;28;20056;-74
2022/05/21 06:37:12;;;;;;;23.00;3.83;;;14.20;99.90;;;;;;5088082;28;20112;-65
2022/05/21 06:39:39;;;;;;;17.25;3.58;;;13.80;99.90;;;;;;5092707;28;20048;-66
2022/05/21 06:42:05;;;;;;;20.38;4.05;;;13.90;99.90;;;;;;5093209;28;20048;-67
2022/05/21 06:44:31;;;;;;;;;;;13.80;99.90;;;;;;5093843;28;20054;-65
2022/05/21 06:46:57;;;;;;;16.08;3.75;;;13.80;99.90;;;;;;5093342;28;20379;-66
2022/05/21 06:49:23;;;;;;;16.27;3.53;;;13.90;99.90;;;;;;5091767;28;20055;-65
2022/05/21 06:51:54;;;;;;;17.55;3.50;;;13.80;99.90;;;;;;5092779;28;20061;-68
2022/05/21 06:54:20;;;;;;;22.20;3.80;;;13.90;99.90;;;;;;5093113;28;20048;-66
2022/05/21 06:56:46;;;;;;;14.85;3.10;;;13.90;99.90;;;;;;5093920;28;20054;-66
2022/05/21 06:59:12;;;;;;;17.23;3.50;;;13.90;99.90;;;;;;5091518;28;20040;-66
2022/05/21 07:01:38;;;;;;;20.65;3.95;;;14.00;99.90;;;;;;5093567;28;20059;-65
2022/05/21 07:04:04;;;;;;;19.45;4.40;;;13.80;99.90;;;;;;5092374;28;20413;-67
2022/05/21 07:09:14;;;;;;;17.35;4.22;;;13.90;99.90;;;;;;5088895;28;20082;-68
2022/05/21 07:11:40;;;;;;;18.02;3.85;;;14.00;99.90;;;;;;5093165;28;20047;-70
2022/05/21 07:14:05;;;;;;;18.75;4.28;;;14.10;99.90;;;;;;5092795;28;20043;-66
2022/05/21 07:16:32;;;;;;;17.33;3.60;;;14.00;99.90;;;;;;5093429;28;20063;-67
2022/05/21 07:18:57;;;;;;;16.52;3.25;;;14.20;99.90;;;;;;5091272;28;20549;-67
2022/05/21 07:21:23;;;;;;;14.75;3.13;;;14.20;99.90;;;;;;5092412;28;20040;-70
2022/05/21 07:23:49;;;;;;;24.13;4.53;;;14.10;99.90;;;;;;5093209;28;20087;-65
2022/05/21 07:26:17;;;;;;;18.17;3.55;;;14.20;99.90;;;;;;5091082;28;20074;-66
2022/05/21 07:28:42;;;;;;;16.40;3.33;;;14.50;99.90;;;;;;5090341;28;20052;-69
2022/05/21 07:31:08;;;;;;;18.95;4.18;;;14.30;99.90;;;;;;5087757;28;20126;-66
2022/05/21 07:33:34;;;;;;;10.65;2.97;;;15.40;99.90;;;;;;5089011;28;20062;-65
2022/05/21 07:36:00;;;;;;;20.92;4.10;;;14.50;99.90;;;;;;5093123;28;20517;-67
2022/05/21 07:38:26;;;;;;;13.55;3.17;;;14.70;99.90;;;;;;5090930;28;20166;-63
2022/05/21 07:40:53;;;;;;;15.90;3.65;;;14.50;99.90;;;;;;5092866;28;20052;-67
2022/05/21 07:43:22;;;;;;;16.00;3.78;;;14.70;99.90;;;;;;5092067;28;20052;-64
2022/05/21 07:45:49;;;;;;;14.75;3.50;;;14.50;99.90;;;;;;5088458;28;20075;-68
2022/05/21 07:48:18;;;;;;;22.20;4.03;;;14.60;99.90;;;;;;5087434;28;20056;-66
2022/05/21 07:50:50;;;;;;;15.35;3.78;;;14.20;99.90;;;;;;5091333;28;20044;-66
2022/05/21 07:53:19;;;;;;;14.40;3.60;;;14.40;99.90;;;;;;5087888;28;20515;-66
2022/05/21 07:55:48;;;;;;;24.75;3.72;;;14.90;99.90;;;;;;5091441;28;20097;-69
2022/05/21 07:58:14;;;;;;;12.40;3.78;;;14.80;99.90;;;;;;5090529;28;20506;-68
2022/05/21 08:00:40;;;;;;;12.20;3.20;;;15.10;99.90;;;;;;5091832;28;20117;-69
2022/05/21 08:03:08;;;;;;;14.93;3.58;;;14.70;99.90;;;;;;5091889;28;20043;-64
2022/05/21 08:05:34;;;;;;;20.15;3.65;;;14.90;99.90;;;;;;5092440;28;20403;-67
2022/05/21 08:08:01;;;;;;;19.65;3.88;;;14.60;99.90;;;;;;5091869;28;20083;-74
2022/05/21 08:10:27;;;;;;;18.92;4.03;;;14.80;99.90;;;;;;5090053;28;20503;-64
2022/05/21 08:12:53;;;;;;;;;;;14.80;99.90;;;;;;5087367;28;20047;-63
2022/05/21 08:15:19;;;;;;;15.15;3.33;;;15.10;99.90;;;;;;5091957;28;19989;-65
2022/05/21 08:17:45;;;;;;;20.05;3.58;;;14.80;99.90;;;;;;5090228;28;20052;-65
2022/05/21 08:20:12;;;;;;;17.92;3.85;;;15.00;99.90;;;;;;5089616;28;20097;-64
2022/05/21 08:28:08;;;;;;;13.40;3.20;;;15.00;99.90;;;;;;5088302;28;20059;-75
2022/05/21 08:30:33;;;;;;;17.20;3.38;;;14.60;99.90;;;;;;5090662;28;20048;-68
2022/05/21 08:33:04;;;;;;;;;;;14.90;99.90;;;;;;5091718;28;20054;-65
2022/05/21 08:35:31;;;;;;;12.00;3.00;;;14.80;99.90;;;;;;5092055;28;19920;-66
2022/05/21 08:37:56;;;;;;;16.02;3.40;;;15.00;99.90;;;;;;5091111;28;20079;-66
2022/05/21 08:40:31;;;;;;;15.38;3.65;;;15.00;99.90;;;;;;5090829;28;20447;-64
2022/05/21 08:42:58;;;;;;;19.77;3.67;;;15.00;99.90;;;;;;5091754;28;20040;-66
2022/05/21 08:45:57;;;;;;;14.93;3.55;;;15.40;99.90;;;;;;5090446;28;20383;-65
2022/05/21 08:48:24;;;;;;;13.50;3.60;;;15.40;99.90;;;;;;5092721;28;20130;-65
2022/05/21 08:50:53;;;;;;;12.55;3.20;;;16.50;99.90;;;;;;5091520;28;20046;-66
2022/05/21 08:53:23;;;;;;;13.05;3.30;;;15.50;99.90;;;;;;5093086;28;20040;-64
2022/05/21 08:55:54;;;;;;;18.45;4.00;;;15.50;99.90;;;;;;5092654;28;20091;-64
2022/05/21 08:58:23;;;;;;;21.88;3.83;;;15.40;99.90;;;;;;5092897;28;20105;-65
2022/05/21 09:00:49;;;;;;;13.93;3.10;;;15.10;99.90;;;;;;5092598;28;20492;-66
2022/05/21 09:03:18;;;;;;;17.58;3.20;;;15.40;99.90;;;;;;5092678;28;20042;-66
2022/05/21 09:05:49;;;;;;;22.67;3.58;;;15.40;99.90;;;;;;5092461;28;20043;-64
2022/05/21 09:08:21;;;;;;;19.48;4.63;;;15.50;99.90;;;;;;5092408;28;20136;-65
2022/05/21 09:11:04;;;;;;;14.55;3.17;;;15.40;99.90;;;;;;5092792;28;20134;-67
2022/05/21 09:14:02;;;;;;;16.15;3.72;;;15.40;99.90;;;;;;5092392;28;20051;-68
2022/05/21 09:16:57;;;;;;;13.75;3.08;;;15.10;99.90;;;;;;5101624;28;20047;-64
2022/05/21 09:19:39;;;;;;;19.20;3.65;;;15.00;99.90;;;;;;5112634;28;20396;-65
2022/05/21 09:22:09;;;;;;;16.25;3.10;;;15.70;99.90;;;;;;5111829;28;20368;-64
2022/05/21 09:24:37;;;;;;;14.20;3.53;;;15.50;99.90;;;;;;5091557;28;20056;-64
2022/05/21 09:27:04;;;;;;;15.43;3.10;;;15.80;99.90;;;;;;5091968;28;20406;-64
2022/05/21 09:29:35;;;;;;;18.50;3.63;;;15.60;99.90;;;;;;5091019;28;20044;-63
2022/05/21 09:32:21;;;;;;;16.67;3.45;;;15.20;99.90;;;;;;5090683;28;20105;-68
2022/05/21 09:35:08;;;;;;;17.60;3.58;;;15.40;99.90;;;;;;5091701;28;20095;-65
2022/05/21 09:37:33;;;;;;;13.77;3.10;;;15.40;99.90;;;;;;5091960;28;20048;-65
2022/05/21 09:40:00;;;;;;;;;;;16.10;99.90;;;;;;5077236;28;20404;-65
2022/05/21 09:45:32;;;;;;;15.57;3.90;;;16.20;99.90;;;;;;5091862;28;20085;-65
2022/05/21 09:48:03;;;;;;;11.55;2.55;;;16.20;99.90;;;;;;5089209;28;20078;-64
2022/05/21 09:50:30;;;;;;;12.75;3.67;;;15.90;99.90;;;;;;5074107;28;20127;-65
2022/05/21 09:52:56;;;;;;;14.30;3.83;;;15.80;99.90;;;;;;5074288;28;20072;-66
2022/05/21 09:55:29;;;;;;;;;;;16.40;99.90;;;;;;5076263;28;20045;-67
2022/05/21 09:58:08;;;;;;;19.05;3.38;;;16.40;99.90;;;;;;5075436;28;20366;-65
2022/05/21 10:00:35;;;;;;;17.25;3.28;;;16.10;99.90;;;;;;5074421;28;20132;-64
2022/05/21 10:03:04;;;;;;;12.15;3.05;;;16.40;99.90;;;;;;5077839;28;20128;-66
2022/05/21 10:05:47;;;;;;;15.60;3.70;;;16.30;99.90;;;;;;5108211;28;20128;-64
2022/05/21 10:11:29;;;;;;;;;;;16.30;99.90;;;;;;5095622;28;20117;-65
2022/05/21 10:14:12;;;;;;;15.02;3.40;;;15.80;99.90;;;;;;5095201;28;19950;-66
2022/05/21 10:16:52;;;;;;;14.93;3.30;;;16.10;99.90;;;;;;5094831;28;20123;-67
2022/05/21 10:19:41;;;;;;;14.30;2.83;;;16.10;99.90;;;;;;5094643;28;20543;-66
2022/05/21 10:22:13;;;;;;;16.27;3.80;;;16.20;99.90;;;;;;5094796;28;20398;-67
2022/05/21 10:25:01;;;;;;;15.63;3.88;;;16.00;99.90;;;;;;5095128;28;20377;-65
2022/05/21 10:27:29;;;;;;;17.80;3.95;;;16.40;99.90;;;;;;5079569;28;20057;-65
2022/05/21 10:30:12;;;;;;;20.55;4.22;;;16.30;99.90;;;;;;5074136;28;20055;-65
2022/05/21 10:33:12;;;;;;;18.70;3.22;;;15.80;99.90;;;;;;5074825;28;20464;-65
2022/05/21 10:36:01;;;;;;;15.95;3.92;;;15.40;99.90;;;;;;5074987;28;20053;-65
2022/05/21 10:39:03;;;;;;;11.60;3.50;;;15.60;99.90;;;;;;5075229;28;20135;-66
2022/05/21 10:41:34;;;;;;;9.70;2.58;;;15.70;99.90;;;;;;5075074;28;20044;-64
2022/05/21 10:44:18;;;;;;;15.55;3.10;;;16.10;99.90;;;;;;5074821;28;20051;-66
2022/05/21 10:46:56;;;;;;;17.95;4.50;;;18.60;99.90;;;;;;5075041;28;20048;-65
2022/05/21 10:49:49;;;;;;;12.80;2.50;;;16.00;99.90;;;;;;5074836;28;20059;-64
2022/05/21 10:52:34;;;;;;;12.95;3.10;;;16.00;99.90;;;;;;5074743;28;20087;-65
2022/05/21 10:55:28;;;;;;;13.40;3.08;;;16.40;99.90;;;;;;5074826;28;20048;-65
2022/05/21 10:58:06;;;;;;;14.70;3.50;;;16.40;99.90;;;;;;5074740;28;20080;-65
2022/05/21 11:00:48;;;;;;;12.80;2.60;;;16.00;99.90;;;;;;5081060;28;20082;-65
2022/05/21 11:03:48;;;;;;;10.63;2.83;;;16.20;99.90;;;;;;5094969;28;20503;-65
2022/05/21 11:06:25;;;;;;;10.15;3.33;;;16.80;99.90;;;;;;5094331;28;20043;-65
2022/05/21 11:09:09;;;;;;;9.90;2.38;;;16.80;99.90;;;;;;5074792;28;20119;-65
2022/05/21 11:11:57;;;;;;;9.55;2.33;;;17.10;99.90;;;;;;5074384;28;20084;-63
2022/05/21 11:14:27;;;;;;;11.77;2.58;;;17.30;99.90;;;;;;5081565;28;20048;-65
2022/05/21 11:17:20;;;;;;;14.88;3.72;;;17.00;99.90;;;;;;5112065;28;20051;-65
2022/05/21 11:19:58;;;;;;;16.75;3.95;;;17.00;99.90;;;;;;5093484;28;20052;-67
2022/05/21 11:22:33;;;;;;;14.70;3.03;;;17.30;99.90;;;;;;5093922;28;20044;-65
2022/05/21 11:25:20;;;;;;;17.05;4.30;;;17.10;99.90;;;;;;5089907;28;20048;-66
2022/05/21 11:27:54;;;;;;;13.25;4.03;;;17.20;99.90;;;;;;5090934;28;20059;-65
2022/05/21 11:30:21;;;;;;;11.77;3.40;;;16.90;99.90;;;;;;5092461;28;20051;-66
2022/05/21 11:38:52;;;;;;;17.08;3.30;;;16.70;99.90;;;;;;5092028;28;20075;-67
2022/05/21 11:41:29;;;;;;;17.00;3.00;;;16.70;99.90;;;;;;5092034;28;20062;-67
2022/05/21 11:47:17;;;;;;;9.52;2.78;;;17.20;99.90;;;;;;5093922;28;20059;-64
2022/05/21 11:50:10;;;;;;;11.30;3.10;;;17.10;99.90;;;;;;5074251;28;20066;-65
2022/05/21 11:52:35;;;;;;;10.80;3.67;;;17.00;99.90;;;;;;5093923;28;20127;-66
2022/05/21 11:55:07;;;;;;;;;;;17.10;99.90;;;;;;5093995;28;20127;-66
2022/05/21 11:57:39;;;;;;;22.83;5.13;;;16.80;99.90;;;;;;5092645;28;19924;-66
2022/05/21 12:00:17;;;;;;;16.10;3.60;;;16.80;99.90;;;;;;5093825;28;20044;-66
2022/05/21 12:02:55;;;;;;;10.05;3.17;;;16.90;99.90;;;;;;5093656;28;20201;-65
2022/05/21 12:05:41;;;;;;;12.07;2.90;;;17.10;99.90;;;;;;5093549;28;20189;-65
2022/05/21 12:08:22;;;;;;;11.88;2.83;;;16.90;99.90;;;;;;5093556;28;20055;-66
2022/05/21 12:10:58;;;;;;;13.48;2.65;;;17.20;99.90;;;;;;5093536;28;20056;-67
2022/05/21 12:13:35;;;;;;;17.70;2.60;;;17.20;99.90;;;;;;5092847;28;20496;-66
2022/05/21 12:16:15;;;;;;;17.25;3.97;;;16.90;99.90;;;;;;5090000;28;20040;-67
2022/05/21 12:18:44;;;;;;;10.32;2.53;;;16.70;99.90;;;;;;5091841;28;20052;-64
2022/05/21 12:21:43;;;;;;;14.95;3.72;;;16.80;99.90;;;;;;5086097;28;21059;-69
2022/05/21 12:24:33;;;;;;;8.68;2.30;;;17.20;99.90;;;;;;5088735;28;20059;-66
2022/05/21 12:27:15;;;;;;;12.60;3.00;;;17.20;99.90;;;;;;5088067;28;20071;-66
2022/05/21 12:29:45;;;;;;;16.92;2.65;;;16.90;99.90;;;;;;5089803;28;20096;-65
2022/05/21 12:32:27;;;;;;;14.23;2.70;;;17.10;99.90;;;;;;5090861;28;20047;-66
2022/05/21 12:34:52;;;;;;;9.52;3.05;;;16.60;99.90;;;;;;5091425;28;20182;-65
2022/05/21 12:37:24;;;;;;;7.45;2.30;;;17.20;99.90;;;;;;5091897;28;20131;-67
2022/05/21 12:39:55;;;;;;;10.68;3.22;;;17.60;99.90;;;;;;5091464;28;20044;-66
2022/05/21 12:42:43;;;;;;;12.07;2.33;;;17.30;99.90;;;;;;5090845;28;20484;-67
2022/05/21 12:45:36;;;;;;;12.98;2.85;;;17.30;99.90;;;;;;5088665;28;20044;-66
2022/05/21 12:48:24;;;;;;;14.18;3.17;;;17.10;99.90;;;;;;5084073;28;20075;-66
2022/05/21 12:50:53;;;;;;;13.02;2.70;;;17.50;99.90;;;;;;5092868;28;20040;-66
2022/05/21 12:53:25;;;;;;;12.98;3.28;;;17.10;99.90;;;;;;5092666;28;20458;-68
2022/05/21 12:56:13;;;;;;;13.13;2.60;;;17.40;99.90;;;;;;5092804;28;20052;-65
2022/05/21 12:58:39;;;;;;;15.57;2.67;;;17.90;99.90;;;;;;5092816;28;20056;-67
2022/05/21 13:01:05;;;;;;;10.98;2.42;;;17.70;99.90;;;;;;5092840;28;20055;-65
2022/05/21 13:03:35;;;;;;;9.25;2.65;;;17.70;99.90;;;;;;5092622;28;20047;-66
2022/05/21 13:06:04;;;;;;;9.80;2.45;;;17.70;99.90;;;;;;5092577;28;20047;-67
2022/05/21 13:08:31;;;;;;;12.73;3.63;;;17.90;99.90;;;;;;5091550;28;20052;-67
2022/05/21 13:11:06;;;;;;;5.95;2.13;;;18.10;99.90;;;;;;5092741;28;20055;-66
2022/05/21 13:13:42;;;;;;;9.75;2.22;;;17.80;99.90;;;;;;5092493;28;20468;-66
2022/05/21 13:16:15;;;;;;;10.55;2.50;;;17.70;99.90;;;;;;5092552;28;20189;-67
2022/05/21 13:18:49;;;;;;;10.02;2.28;;;18.20;99.90;;;;;;5092503;28;20484;-66
2022/05/21 13:21:22;;;;;;;12.88;2.70;;;17.80;99.90;;;;;;5092575;28;20040;-65
2022/05/21 13:23:48;;;;;;;11.43;2.17;;;17.90;99.90;;;;;;5092600;28;20046;-66
2022/05/21 13:26:23;;;;;;;8.63;2.40;;;18.20;99.90;;;;;;5096091;28;20047;-67
2022/05/21 13:28:49;;;;;;;14.63;3.03;;;17.60;99.90;;;;;;5096575;28;20135;-67